Time;durP1;ratioP1;P1;durP2;ratioP2;P2;SDS_P1;SDS_P2;PMS_P1;PMS_P2;Temp;Humidity;BMP_temperature;BMP_pressure;BME280_temperature;BME280_humidity;BME280_pressure;Samples;Min_cycle;Max_cycle;Signal;HPM_P1;HPM_P2
2022/12/17 13:06:11;;;;;;;20.27;18.35;;;;;;;19.67;20.52;101243.59;5063866;28;20049;-77
2022/12/17 13:08:39;;;;;;;22.73;20.33;;;;;;;19.91;19.55;101241.88;5061233;28;20063;-77
2022/12/17 13:11:25;;;;;;;24.67;22.15;;;;;;;19.88;20.52;101240.59;5061946;28;20059;-76
2022/12/17 13:13:58;;;;;;;24.05;21.75;;;;;;;19.69;20.41;101238.41;5067746;28;20473;-78
2022/12/17 13:16:39;;;;;;;22.15;19.95;;;;;;;19.66;20.20;101233.47;5064135;28;20060;-78
2022/12/17 13:19:32;;;;;;;23.98;21.58;;;;;;;19.58;20.14;101231.63;5060618;28;20138;-78
2022/12/17 13:22:10;;;;;;;24.38;22.08;;;;;;;19.25;21.02;101238.25;5062361;28;20048;-80
2022/12/17 13:24:39;;;;;;;27.80;25.50;;;;;;;19.19;20.57;101236.84;5058181;28;20048;-78
2022/12/17 13:27:28;;;;;;;38.22;35.47;;;;;;;19.15;20.48;101230.25;5069210;28;20048;-77
2022/12/17 13:29:56;;;;;;;1999.90;999.90;;;;;;;18.89;20.51;101223.00;5052626;28;20052;-76
2022/12/17 13:32:28;;;;;;;1999.90;999.90;;;;;;;18.66;21.30;101225.41;5062199;28;20060;-76
2022/12/17 13:35:15;;;;;;;1999.90;999.90;;;;;;;17.93;21.90;101214.78;5055253;28;20057;-77
2022/12/17 13:37:51;;;;;;;1999.90;999.90;;;;;;;17.10;22.88;101227.66;5061573;28;20408;-78
2022/12/17 13:40:34;;;;;;;1999.90;999.90;;;;;;;16.51;23.02;101217.97;5075165;28;20075;-78
2022/12/17 13:43:02;;;;;;;1999.90;999.90;;;;;;;16.69;23.10;101223.53;5074929;28;20048;-78
2022/12/17 13:45:36;;;;;;;1999.90;999.90;;;;;;;16.34;23.69;101218.06;5075290;28;20072;-79
2022/12/17 13:48:06;;;;;;;18.92;16.15;;;;;;;14.51;24.69;101226.22;5075432;28;20064;-79
2022/12/17 13:50:37;;;;;;;16.00;14.13;;;;;;;12.57;28.20;101233.25;5071721;28;20056;-78
2022/12/17 13:53:11;;;;;;;19.63;14.85;;;;;;;11.84;28.66;101234.00;5070349;28;20051;-74
2022/12/17 13:55:39;;;;;;;18.63;14.35;;;;;;;10.87;30.07;101239.81;5073038;28;20048;-76
2022/12/17 13:58:06;;;;;;;18.08;14.65;;;;;;;10.02;31.78;101238.47;5069791;28;20049;-80
2022/12/17 14:00:36;;;;;;;22.48;15.85;;;;;;;9.37;33.44;101238.69;5071197;28;21280;-82
2022/12/17 14:03:12;;;;;;;;;;;;;;;8.63;34.05;101234.84;5060487;28;20463;-77
2022/12/17 14:05:48;;;;;;;22.02;16.15;;;;;;;8.09;35.80;101250.22;5065490;28;20380;-80
2022/12/17 14:08:21;;;;;;;23.70;16.85;;;;;;;7.54;36.79;101258.22;5073897;28;20051;-83
2022/12/17 14:12:20;;;;;;;25.30;16.45;;;;;;;7.19;37.47;101258.97;5071178;28;20063;-85
2022/12/17 14:13:39;;;;;;;24.15;15.20;;;;;;;6.59;38.48;101258.44;5064150;28;20053;-85
2022/12/17 14:16:07;;;;;;;22.40;16.58;;;;;;;6.29;38.96;101266.28;5056182;28;20083;-85
2022/12/17 14:18:35;;;;;;;20.63;15.13;;;;;;;5.93;40.20;101262.38;5069590;28;20048;-83
2022/12/17 14:21:05;;;;;;;22.85;16.55;;;;;;;5.58;40.99;101265.66;5074102;28;20049;-83
2022/12/17 14:23:34;;;;;;;19.55;15.50;;;;;;;5.35;41.16;101262.09;5063792;28;20060;-81
2022/12/17 14:26:05;;;;;;;26.00;17.58;;;;;;;5.07;41.67;101261.25;5065061;28;20049;-81
2022/12/17 14:28:34;;;;;;;24.30;16.65;;;;;;;4.69;42.74;101270.44;5067960;28;20052;-80
2022/12/17 14:31:06;;;;;;;24.30;16.88;;;;;;;4.62;43.48;101269.75;5066837;28;20057;-81
2022/12/17 14:33:36;;;;;;;25.15;16.92;;;;;;;4.43;43.85;101267.31;5064016;28;20056;-81
2022/12/17 14:36:09;;;;;;;26.92;18.52;;;;;;;4.31;43.72;101272.09;5073764;28;20044;-80
2022/12/17 14:38:36;;;;;;;23.35;16.63;;;;;;;4.02;45.03;101279.66;5062724;28;20052;-80
2022/12/17 14:42:24;;;;;;;26.35;18.30;;;;;;;3.88;45.15;101276.38;5074781;28;20055;-81
2022/12/17 14:43:59;;;;;;;25.02;18.08;;;;;;;3.69;45.68;101278.53;5064589;28;20080;-81
2022/12/17 14:46:27;;;;;;;24.15;17.40;;;;;;;3.69;46.52;101269.44;5074157;28;20059;-81
2022/12/17 14:49:02;;;;;;;22.45;17.20;;;;;;;3.49;46.26;101273.50;5062481;28;20497;-86
2022/12/17 14:51:33;;;;;;;25.10;17.58;;;;;;;3.18;47.81;101280.34;5072341;28;20055;-80
2022/12/17 14:54:17;;;;;;;24.38;17.88;;;;;;;3.11;47.43;101272.25;5072546;28;20053;-81
2022/12/17 14:56:45;;;;;;;25.58;17.73;;;;;;;2.97;47.28;101281.84;5075496;28;20469;-86
2022/12/17 14:59:31;;;;;;;24.45;18.33;;;;;;;2.71;48.14;101288.72;5075487;28;20049;-86
2022/12/17 15:02:01;;;;;;;25.20;19.48;;;;;;;2.37;48.87;101294.88;5075909;28;20049;-86
2022/12/17 15:04:31;;;;;;;25.83;17.77;;;;;;;2.27;49.73;101291.03;5074104;28;20059;-85
2022/12/17 15:06:59;;;;;;;28.70;19.55;;;;;;;2.11;49.43;101289.84;5074878;28;20052;-85
2022/12/17 15:09:27;;;;;;;27.70;18.38;;;;;;;1.97;49.53;101290.03;5075407;28;20079;-85
2022/12/17 15:11:54;;;;;;;27.80;20.08;;;;;;;1.87;50.38;101286.22;5075864;28;20052;-85
2022/12/17 15:14:22;;;;;;;28.23;18.70;;;;;;;1.81;50.20;101280.59;5070186;28;20055;-85
2022/12/17 15:16:49;;;;;;;26.00;18.13;;;;;;;1.67;50.53;101281.06;5073768;28;20063;-85
2022/12/17 15:19:16;;;;;;;27.88;18.55;;;;;;;1.51;50.51;101279.81;5073832;28;20052;-85
2022/12/17 15:21:44;;;;;;;26.27;18.40;;;;;;;1.36;50.46;101272.00;5058878;28;20053;-84
2022/12/17 15:24:17;;;;;;;29.17;20.23;;;;;;;1.20;51.24;101274.34;5055646;28;20060;-84
2022/12/17 15:26:45;;;;;;;30.48;20.30;;;;;;;1.08;51.26;101281.69;5055643;28;20049;-83
2022/12/17 15:29:12;;;;;;;28.27;18.77;;;;;;;0.92;51.91;101287.78;5054734;28;20504;-86
2022/12/17 15:31:39;;;;;;;35.28;27.92;;;;;;;0.74;51.85;101286.75;5059241;28;20061;-83
2022/12/17 15:34:07;;;;;;;28.40;19.63;;;;;;;0.64;52.20;101291.91;5064308;28;20064;-83
2022/12/17 15:36:34;;;;;;;29.83;19.63;;;;;;;0.53;52.33;101289.94;5057928;28;20053;-83
2022/12/17 15:39:04;;;;;;;27.90;19.85;;;;;;;0.45;52.33;101298.47;5070903;28;20252;-84
2022/12/17 15:44:17;;;;;;;30.45;19.60;;;;;;;0.32;52.23;101299.44;5073414;28;20067;-84
2022/12/17 15:46:44;;;;;;;25.58;18.05;;;;;;;0.28;51.94;101299.03;5070485;28;20049;-82
2022/12/17 15:49:11;;;;;;;29.40;19.98;;;;;;;0.12;52.58;101299.63;5066916;28;20048;-84
2022/12/17 15:51:38;;;;;;;34.33;23.00;;;;;;;0.01;52.72;101308.56;5074857;28;20048;-85
2022/12/17 15:54:06;;;;;;;30.10;20.73;;;;;;;0.06;52.81;101314.19;5071164;28;20052;-84
2022/12/17 15:56:52;;;;;;;27.70;17.95;;;;;;;-0.01;52.83;101317.84;5072637;28;20052;-87
2022/12/17 15:59:19;;;;;;;33.65;22.23;;;;;;;-0.02;52.53;101316.16;5078863;28;20049;-86
2022/12/17 16:01:47;;;;;;;31.60;20.70;;;;;;;-0.27;53.34;101318.06;5062040;28;20060;-88
2022/12/17 16:04:14;;;;;;;34.58;21.73;;;;;;;-0.38;53.16;101321.47;5065744;28;20049;-79
2022/12/17 16:06:41;;;;;;;30.05;21.60;;;;;;;-0.48;53.28;101322.81;5071754;28;21949;-82
2022/12/17 16:09:08;;;;;;;36.92;21.90;;;;;;;-0.66;53.82;101326.28;5068373;28;20412;-82
2022/12/17 16:12:11;;;;;;;32.70;21.52;;;;;;;-0.73;53.69;101330.97;5072381;28;20048;-82
2022/12/17 16:17:19;;;;;;;32.13;21.23;;;;;;;-1.05;54.23;101343.69;5068935;28;20068;-81
2022/12/17 16:19:49;;;;;;;30.42;18.13;;;;;;;-1.06;54.44;101347.50;5071532;28;20044;-81
2022/12/17 16:22:17;;;;;;;;;;;;;;;-1.12;54.87;101348.38;5072638;28;20056;-80
2022/12/17 16:25:22;;;;;;;30.88;19.05;;;;;;;-1.21;54.75;101349.66;5060862;28;19921;-80
2022/12/17 16:27:51;;;;;;;24.52;16.92;;;;;;;-1.20;54.18;101341.22;5065020;28;20057;-77
2022/12/17 16:30:19;;;;;;;29.77;18.52;;;;;;;-1.28;54.17;101350.53;5062650;28;20053;-81
2022/12/17 16:32:46;;;;;;;27.80;17.95;;;;;;;-1.45;54.46;101354.75;5069931;28;20571;-83
2022/12/17 16:35:14;;;;;;;27.20;17.33;;;;;;;-1.52;55.12;101353.94;5065139;28;20493;-83
2022/12/17 16:37:41;;;;;;;27.40;17.27;;;;;;;-1.66;55.98;101353.97;5070534;28;20051;-80
2022/12/17 16:40:14;;;;;;;22.65;15.23;;;;;;;-1.69;55.06;101361.72;5072410;28;20056;-80
2022/12/17 16:42:44;;;;;;;21.27;13.43;;;;;;;-1.74;55.76;101361.50;5073418;28;20067;-77
2022/12/17 16:45:13;;;;;;;20.75;13.85;;;;;;;-1.78;56.12;101363.00;5072947;28;20063;-85
2022/12/17 16:47:40;;;;;;;23.25;13.98;;;;;;;-1.88;55.55;101363.41;5066008;28;20086;-80
2022/12/17 16:50:07;;;;;;;22.85;14.82;;;;;;;-1.94;55.26;101362.34;5066478;28;20394;-82
2022/12/17 16:52:35;;;;;;;25.38;15.32;;;;;;;-2.05;56.01;101369.28;5066272;28;20053;-81
2022/12/17 16:55:02;;;;;;;24.08;15.57;;;;;;;-2.10;55.59;101379.13;5060422;28;20067;-83
2022/12/17 16:57:29;;;;;;;22.35;13.85;;;;;;;-2.09;55.54;101380.81;5066649;28;20060;-82
2022/12/17 16:59:57;;;;;;;21.10;13.55;;;;;;;-2.02;56.16;101378.09;5072793;28;20409;-83
2022/12/17 17:02:28;;;;;;;16.48;10.85;;;;;;;-1.99;55.43;101385.88;5072768;28;20052;-82
2022/12/17 17:04:58;;;;;;;18.45;11.80;;;;;;;-2.19;56.23;101392.13;5072966;28;20067;-82
2022/12/17 17:07:25;;;;;;;;;;;;;;;-2.08;55.48;101393.41;5075985;28;20497;-82
2022/12/17 17:09:52;;;;;;;18.00;11.27;;;;;;;-2.28;55.22;101393.41;5076034;28;19920;-83
2022/12/17 17:12:19;;;;;;;18.38;11.25;;;;;;;-2.29;55.52;101398.00;5076479;28;20060;-82
2022/12/17 17:14:47;;;;;;;16.73;11.57;;;;;;;-2.38;55.93;101391.06;5076088;28;20056;-82
2022/12/17 17:17:14;;;;;;;18.15;10.95;;;;;;;-2.43;55.49;101387.28;5076217;28;20049;-82
2022/12/17 17:19:45;;;;;;;18.10;10.52;;;;;;;-2.42;55.90;101391.69;5074490;28;20056;-82
2022/12/17 17:22:15;;;;;;;15.20;10.60;;;;;;;-2.50;55.60;101399.00;5076240;28;20048;-82
2022/12/17 17:24:42;;;;;;;;;;;;;;;-2.56;55.67;101386.19;5074588;28;20048;-84
2022/12/17 17:27:09;;;;;;;16.42;10.05;;;;;;;-2.47;55.67;101389.56;5070915;28;19927;-82
2022/12/17 17:29:37;;;;;;;15.32;9.77;;;;;;;-2.57;55.38;101378.22;5069793;28;20053;-82
2022/12/17 17:32:04;;;;;;;17.00;11.25;;;;;;;-2.75;56.49;101366.00;5061938;28;20044;-83
2022/12/17 17:34:31;;;;;;;18.58;12.85;;;;;;;-2.81;56.91;101376.84;5071051;28;20052;-83
2022/12/17 17:37:00;;;;;;;17.45;12.45;;;;;;;-2.93;57.24;101388.34;5074289;28;20480;-83
2022/12/17 17:39:30;;;;;;;19.20;12.43;;;;;;;-3.05;57.20;101395.41;5073252;28;20055;-83
2022/12/17 17:41:57;;;;;;;;;;;;;;;-3.12;58.17;101381.75;5076377;28;20048;-82
2022/12/17 17:44:27;;;;;;;18.38;11.10;;;;;;;-3.12;56.93;101389.09;5075244;28;19927;-83
2022/12/17 17:46:54;;;;;;;18.38;11.50;;;;;;;-3.07;57.14;101386.59;5069347;28;20061;-82
2022/12/17 17:49:22;;;;;;;15.93;10.98;;;;;;;-3.04;56.95;101393.50;5059740;28;20045;-79
2022/12/17 17:51:49;;;;;;;17.25;10.80;;;;;;;-3.13;57.42;101401.88;5074797;28;20060;-80
2022/12/17 17:54:18;;;;;;;17.33;10.65;;;;;;;-3.35;58.36;101403.81;5075561;28;20473;-81
2022/12/17 17:56:45;;;;;;;14.38;9.57;;;;;;;-3.32;58.01;101402.56;5071902;28;20048;-83
2022/12/17 17:59:17;;;;;;;14.23;9.68;;;;;;;-3.34;57.68;101410.97;5075079;28;20048;-86
2022/12/17 18:01:48;;;;;;;16.08;10.50;;;;;;;-3.44;58.37;101406.88;5076152;28;20052;-85
2022/12/17 18:04:17;;;;;;;16.40;10.43;;;;;;;-3.48;58.32;101410.03;5075731;28;20412;-85
2022/12/17 18:06:46;;;;;;;15.57;10.15;;;;;;;-3.52;58.67;101408.75;5055910;28;20084;-85
2022/12/17 18:09:14;;;;;;;14.40;10.30;;;;;;;-3.52;58.56;101402.47;5056567;28;20068;-86
2022/12/17 18:11:44;;;;;;;17.10;11.25;;;;;;;-3.56;58.64;101401.16;5062902;28;20059;-83
2022/12/17 18:14:11;;;;;;;19.38;12.68;;;;;;;-3.50;58.85;101408.53;5056376;28;20489;-85
2022/12/17 18:16:41;;;;;;;24.92;14.50;;;;;;;-3.60;59.22;101408.88;5068890;28;20053;-85
2022/12/17 18:19:10;;;;;;;23.33;14.40;;;;;;;-3.52;58.66;101408.75;5061514;28;20402;-78
2022/12/17 18:21:38;;;;;;;24.13;15.50;;;;;;;-3.57;58.84;101403.06;5060822;28;20053;-76
2022/12/17 18:24:10;;;;;;;23.73;14.40;;;;;;;-3.61;59.01;101398.19;5075022;28;20045;-77
2022/12/17 18:26:41;;;;;;;27.92;16.98;;;;;;;-3.59;58.80;101407.00;5073309;28;20048;-78
2022/12/17 18:29:14;;;;;;;28.45;17.02;;;;;;;-3.70;59.32;101406.50;5069166;28;20059;-78
2022/12/17 18:31:41;;;;;;;32.22;17.90;;;;;;;-3.81;59.56;101409.75;5065076;28;20053;-80
2022/12/17 18:34:24;;;;;;;31.15;18.10;;;;;;;-3.77;59.26;101407.50;5070847;28;20055;-78
2022/12/17 18:36:51;;;;;;;31.00;18.27;;;;;;;-3.78;59.34;101424.84;5060412;28;20485;-76
2022/12/17 18:39:23;;;;;;;23.63;16.13;;;;;;;-3.82;59.09;101426.28;5062412;28;20055;-75
2022/12/17 18:44:42;;;;;;;25.13;14.75;;;;;;;-3.95;59.33;101418.84;5075950;28;20060;-76
2022/12/17 18:47:12;;;;;;;27.48;15.38;;;;;;;-3.93;59.05;101411.31;5069998;28;20547;-75
2022/12/17 18:49:39;;;;;;;;;;;;;;;-3.92;59.20;101423.91;5072753;28;20376;-75
2022/12/17 18:52:06;;;;;;;19.60;11.50;;;;;;;-3.98;58.64;101425.53;5061829;28;20304;-76
2022/12/17 18:54:37;;;;;;;22.65;13.88;;;;;;;-4.10;58.62;101427.91;5071756;28;20056;-75
2022/12/17 18:57:04;;;;;;;21.13;13.30;;;;;;;-4.06;58.54;101438.41;5060408;28;20414;-76
2022/12/17 18:59:32;;;;;;;22.85;13.40;;;;;;;-4.14;58.70;101436.66;5057968;28;20055;-74
2022/12/17 19:02:00;;;;;;;28.15;15.60;;;;;;;-4.18;58.76;101429.91;5071182;28;20100;-75
2022/12/17 19:04:28;;;;;;;27.15;14.93;;;;;;;-4.22;58.96;101440.34;5069266;28;20053;-75
2022/12/17 19:07:06;;;;;;;33.70;15.63;;;;;;;-4.27;58.92;101437.34;5062466;28;20059;-74
2022/12/17 19:09:38;;;;;;;28.80;14.52;;;;;;;-4.29;59.11;101444.88;5059820;28;20493;-77
2022/12/17 19:12:10;;;;;;;28.10;15.43;;;;;;;-4.15;58.68;101432.25;5066963;28;20064;-74
2022/12/17 19:14:37;;;;;;;28.23;16.40;;;;;;;-4.22;58.64;101434.06;5062925;28;20373;-76
2022/12/17 19:17:06;;;;;;;25.77;14.82;;;;;;;-4.23;58.76;101438.66;5062972;28;20045;-76
2022/12/17 19:19:33;;;;;;;26.15;13.93;;;;;;;-4.21;58.69;101449.34;5058140;28;20045;-76
2022/12/17 19:22:02;;;;;;;23.83;14.40;;;;;;;-4.30;58.58;101444.03;5061809;28;20052;-76
2022/12/17 19:24:29;;;;;;;19.88;11.63;;;;;;;-4.37;58.82;101445.81;5060745;28;20057;-75
2022/12/17 19:26:59;;;;;;;20.65;10.75;;;;;;;-4.42;58.57;101439.28;5062202;28;20048;-75
2022/12/17 19:29:26;;;;;;;17.60;10.27;;;;;;;-4.35;58.67;101442.91;5063715;28;20049;-75
2022/12/17 19:31:54;;;;;;;18.30;11.32;;;;;;;-4.36;58.81;101443.97;5065422;28;20047;-74
2022/12/17 19:34:23;;;;;;;18.17;10.70;;;;;;;-4.40;59.23;101443.50;5063762;28;20409;-75
2022/12/17 19:36:50;;;;;;;14.70;8.68;;;;;;;-4.47;58.99;101449.88;5061422;28;20055;-76
2022/12/17 19:39:19;;;;;;;15.18;9.60;;;;;;;-4.56;59.40;101455.44;5058117;28;20049;-75
2022/12/17 19:41:50;;;;;;;16.50;10.80;;;;;;;-4.62;59.86;101447.19;5064119;28;20053;-75
2022/12/17 19:44:18;;;;;;;18.50;9.75;;;;;;;-4.56;59.54;101449.16;5068904;28;20063;-77
2022/12/17 19:46:46;;;;;;;16.13;9.55;;;;;;;-4.58;59.67;101443.91;5069196;28;20059;-75
2022/12/17 19:49:17;;;;;;;14.98;9.93;;;;;;;-4.57;58.99;101439.31;5062942;28;20048;-75
2022/12/17 19:51:46;;;;;;;14.88;9.80;;;;;;;-4.68;59.04;101448.81;5060513;28;20049;-77
2022/12/17 19:54:14;;;;;;;15.07;9.60;;;;;;;-4.67;58.98;101445.06;5058430;28;20053;-76
2022/12/17 19:56:43;;;;;;;14.88;9.68;;;;;;;-4.74;59.61;101447.69;5058857;28;20045;-78
2022/12/17 19:59:11;;;;;;;14.90;7.93;;;;;;;-4.71;59.50;101455.44;5062164;28;20060;-77
2022/12/17 20:01:42;;;;;;;12.85;7.63;;;;;;;-4.70;58.86;101448.16;5062704;28;20366;-79
2022/12/17 20:04:11;;;;;;;12.75;7.22;;;;;;;-4.78;59.28;101467.28;5065852;28;20075;-77
2022/12/17 20:06:38;;;;;;;13.82;8.57;;;;;;;-4.85;58.88;101466.34;5069852;28;20048;-77
2022/12/17 20:09:08;;;;;;;15.93;8.88;;;;;;;-4.98;59.14;101478.69;5065799;28;20405;-77
2022/12/17 20:11:36;;;;;;;15.18;9.65;;;;;;;-5.00;59.17;101475.31;5070913;28;20508;-76
2022/12/17 20:14:06;;;;;;;14.65;8.75;;;;;;;-4.98;59.20;101481.41;5068647;28;20055;-77
2022/12/17 20:16:36;;;;;;;11.88;8.88;;;;;;;-4.95;59.03;101478.34;5066321;28;20056;-75
2022/12/17 20:19:05;;;;;;;16.02;8.80;;;;;;;-4.82;58.27;101485.84;5067600;28;20052;-75
2022/12/17 20:21:32;;;;;;;15.15;8.32;;;;;;;-4.93;58.18;101484.44;5070935;28;20123;-75
2022/12/17 20:24:00;;;;;;;14.80;8.65;;;;;;;-5.06;59.05;101477.94;5064165;28;20057;-75
2022/12/17 20:26:31;;;;;;;14.77;9.23;;;;;;;-5.14;58.93;101487.88;5052818;28;20051;-76
2022/12/17 20:28:59;;;;;;;15.57;8.95;;;;;;;-5.12;58.83;101480.41;5052832;28;20470;-75
2022/12/17 20:31:26;;;;;;;14.27;8.80;;;;;;;-5.05;59.34;101487.81;5056081;28;20412;-75
2022/12/17 20:33:54;;;;;;;13.65;9.20;;;;;;;-4.95;59.21;101489.22;5062525;28;20392;-75
2022/12/17 20:36:22;;;;;;;15.20;9.40;;;;;;;-4.98;59.57;101488.72;5069779;28;20056;-75
2022/12/17 20:38:50;;;;;;;15.23;8.93;;;;;;;-5.06;59.57;101486.97;5066645;28;20071;-77
2022/12/17 20:41:19;;;;;;;12.05;8.75;;;;;;;-5.11;59.69;101481.22;5065341;28;20040;-76
2022/12/17 20:43:48;;;;;;;15.55;9.75;;;;;;;-4.99;59.23;101485.19;5064959;28;20173;-76
2022/12/17 20:46:18;;;;;;;17.85;10.52;;;;;;;-5.05;59.75;101477.78;5072564;28;20048;-77
2022/12/17 20:48:46;;;;;;;16.55;9.25;;;;;;;-5.03;59.42;101464.00;5070737;28;20063;-77
2022/12/17 20:51:16;;;;;;;14.73;8.68;;;;;;;-5.06;59.77;101467.09;5069072;28;20057;-76
2022/12/17 20:53:43;;;;;;;18.45;10.45;;;;;;;-5.14;59.62;101468.03;5063397;28;20488;-77
2022/12/17 20:56:14;;;;;;;20.55;12.07;;;;;;;-5.13;59.78;101478.69;5070334;28;20056;-78
2022/12/17 20:58:42;;;;;;;;;;;;;;;-5.17;60.08;101476.53;5065644;28;20515;-76
2022/12/17 21:01:12;;;;;;;19.60;10.68;;;;;;;-5.17;60.07;101481.97;5068986;28;20399;-77
2022/12/17 21:03:40;;;;;;;20.65;10.82;;;;;;;-5.20;59.90;101480.47;5064913;28;20049;-76
2022/12/17 21:06:09;;;;;;;17.05;9.88;;;;;;;-5.18;59.74;101486.56;5066898;28;20060;-77
2022/12/17 21:08:37;;;;;;;16.52;10.68;;;;;;;-5.28;59.94;101485.16;5061289;28;20057;-76
2022/12/17 21:11:05;;;;;;;18.15;11.25;;;;;;;-5.26;60.14;101486.66;5065040;28;20480;-76
2022/12/17 21:13:34;;;;;;;22.75;11.85;;;;;;;-5.30;60.12;101491.59;5071979;28;20055;-76
2022/12/17 21:16:03;;;;;;;18.05;11.30;;;;;;;-5.23;59.64;101499.00;5069896;28;20424;-78
2022/12/17 21:18:33;;;;;;;17.88;11.20;;;;;;;-5.36;59.34;101492.34;5065151;28;20056;-77
2022/12/17 21:21:03;;;;;;;19.00;12.35;;;;;;;-5.34;59.44;101498.41;5065613;28;20044;-76
2022/12/17 21:23:31;;;;;;;14.38;9.50;;;;;;;-5.36;59.22;101497.75;5067560;28;20047;-76
2022/12/17 21:26:00;;;;;;;13.20;7.88;;;;;;;-5.37;59.93;101495.25;5074332;28;20056;-76
2022/12/17 21:28:28;;;;;;;14.18;7.95;;;;;;;-5.35;59.32;101494.03;5076392;28;20503;-77
2022/12/17 21:30:55;;;;;;;10.23;5.80;;;;;;;-5.38;59.47;101491.66;5070210;28;20420;-78
2022/12/17 21:33:23;;;;;;;9.40;5.50;;;;;;;-5.36;58.80;101497.75;5077628;28;20056;-76
2022/12/17 21:35:58;;;;;;;14.95;7.38;;;;;;;-5.41;58.79;101499.38;5076150;28;20483;-76
2022/12/17 21:38:42;;;;;;;13.20;6.47;;;;;;;-5.41;59.44;101492.06;5069240;28;20523;-77
2022/12/17 21:41:14;;;;;;;7.60;5.22;;;;;;;-5.51;59.50;101499.63;5074414;28;20040;-79
2022/12/17 21:43:42;;;;;;;9.18;6.15;;;;;;;-5.52;59.23;101495.22;5072829;28;20516;-76
2022/12/17 21:46:11;;;;;;;8.88;5.03;;;;;;;-5.55;59.19;101501.84;5071019;28;20056;-75
2022/12/17 21:48:42;;;;;;;10.57;5.75;;;;;;;-5.65;59.08;101503.13;5075394;28;20056;-75
2022/12/17 21:51:19;;;;;;;9.13;5.80;;;;;;;-5.72;59.01;101503.00;5066664;28;20049;-77
2022/12/17 21:53:47;;;;;;;10.93;6.35;;;;;;;-5.64;59.41;101502.09;5074445;28;20064;-76
2022/12/17 21:56:17;;;;;;;10.75;6.63;;;;;;;-5.66;59.35;101505.00;5081050;28;20059;-77
2022/12/17 21:58:46;;;;;;;10.48;6.07;;;;;;;-5.67;59.07;101502.44;5093678;28;20058;-75
2022/12/17 22:01:15;;;;;;;10.23;6.57;;;;;;;-5.65;59.18;101511.25;5089789;28;20075;-76
2022/12/17 22:03:42;;;;;;;11.43;6.88;;;;;;;-5.59;59.22;101518.69;5093466;28;20028;-76
2022/12/17 22:06:13;;;;;;;9.23;6.03;;;;;;;-5.54;59.07;101508.13;5094777;28;20037;-76
2022/12/17 22:08:45;;;;;;;9.98;6.55;;;;;;;-5.53;58.85;101517.94;5093612;28;20045;-77
2022/12/17 22:11:15;;;;;;;13.68;7.13;;;;;;;-5.61;58.89;101518.84;5091803;28;20036;-76
2022/12/17 22:16:33;;;;;;;21.63;11.73;;;;;;;-5.55;58.76;101526.25;5096871;28;20055;-75
2022/12/17 22:19:02;;;;;;;21.58;10.10;;;;;;;-5.65;58.58;101535.69;5095579;28;20037;-76
2022/12/17 22:21:33;;;;;;;14.00;7.57;;;;;;;-5.62;59.36;101524.47;5092444;28;20067;-76
2022/12/17 22:24:02;;;;;;;12.52;6.85;;;;;;;-5.61;59.27;101515.28;5091599;28;20052;-75
2022/12/17 22:26:32;;;;;;;14.43;7.95;;;;;;;-5.56;58.92;101521.88;5092311;28;20059;-78
2022/12/17 22:29:06;;;;;;;13.85;7.40;;;;;;;-5.59;59.00;101511.38;5094280;28;20049;-75
2022/12/17 22:34:19;;;;;;;11.40;6.10;;;;;;;-5.68;59.84;101522.50;5086003;28;20054;-75
2022/12/17 22:36:46;;;;;;;9.25;5.95;;;;;;;-5.72;59.41;101516.56;5075997;28;20059;-75
2022/12/17 22:39:15;;;;;;;9.48;5.95;;;;;;;-5.86;59.10;101518.19;5084193;28;20036;-74
2022/12/17 22:44:27;;;;;;;11.23;6.13;;;;;;;-5.84;59.07;101510.72;5066779;28;20119;-75
2022/12/17 22:46:54;;;;;;;11.85;6.88;;;;;;;-5.80;59.63;101512.03;5074407;28;20071;-75
2022/12/17 22:49:22;;;;;;;9.40;5.68;;;;;;;-5.68;58.47;101508.94;5074503;28;20056;-74
2022/12/17 22:51:49;;;;;;;10.88;7.10;;;;;;;-5.91;59.43;101507.06;5055968;28;20049;-74
2022/12/17 22:54:18;;;;;;;13.05;7.53;;;;;;;-5.82;59.26;101514.09;5056430;28;20055;-75
2022/12/17 22:56:45;;;;;;;15.57;9.00;;;;;;;-5.78;59.38;101530.88;5055907;28;20056;-75
2022/12/17 22:59:16;;;;;;;17.83;9.13;;;;;;;-5.81;59.73;101529.34;5055783;28;20429;-75
2022/12/17 23:01:43;;;;;;;13.88;8.68;;;;;;;-5.76;59.15;101529.66;5055739;28;20465;-75
2022/12/17 23:04:13;;;;;;;12.98;7.93;;;;;;;-5.86;59.28;101528.19;5057801;28;20063;-75
2022/12/17 23:06:44;;;;;;;11.95;6.47;;;;;;;-5.87;59.27;101534.66;5070430;28;20064;-75
2022/12/17 23:09:12;;;;;;;13.40;7.15;;;;;;;-5.87;59.51;101538.22;5062896;28;20068;-75
2022/12/17 23:11:41;;;;;;;9.60;6.78;;;;;;;-5.79;59.04;101543.59;5074375;28;20044;-74
2022/12/17 23:14:09;;;;;;;12.30;7.57;;;;;;;-5.87;58.78;101538.22;5074949;28;20060;-75
2022/12/17 23:16:38;;;;;;;11.38;5.93;;;;;;;-5.82;59.29;101549.34;5065786;28;20393;-75
2022/12/17 23:19:06;;;;;;;9.70;5.63;;;;;;;-5.86;58.77;101547.19;5066488;28;20477;-75
2022/12/17 23:21:33;;;;;;;9.95;5.30;;;;;;;-5.85;59.62;101538.03;5073709;28;20052;-74
2022/12/17 23:24:01;;;;;;;9.77;5.35;;;;;;;-5.69;58.70;101524.38;5072433;28;20063;-75
2022/12/17 23:26:30;;;;;;;10.77;5.50;;;;;;;-5.73;58.84;101529.31;5072545;28;20389;-74
2022/12/17 23:29:04;;;;;;;10.45;5.82;;;;;;;-5.82;59.35;101533.09;5071859;28;20071;-74
2022/12/17 23:31:35;;;;;;;9.70;5.78;;;;;;;-5.91;60.00;101536.88;5072744;28;20060;-75
2022/12/17 23:34:03;;;;;;;11.05;6.63;;;;;;;-5.90;59.99;101543.97;5058955;28;20056;-74
2022/12/17 23:36:30;;;;;;;17.92;10.48;;;;;;;-6.00;59.65;101538.00;5071230;28;20052;-75
2022/12/17 23:38:58;;;;;;;14.32;7.35;;;;;;;-5.88;59.43;101541.94;5063165;28;20052;-74
2022/12/17 23:41:27;;;;;;;10.32;5.93;;;;;;;-6.02;59.55;101537.34;5059279;28;20049;-75
2022/12/17 23:43:55;;;;;;;16.02;9.68;;;;;;;-5.98;60.36;101536.78;5059099;28;20517;-74
2022/12/17 23:46:25;;;;;;;15.85;8.95;;;;;;;-5.98;60.08;101519.69;5055271;28;20057;-74
2022/12/17 23:48:53;;;;;;;10.32;6.38;;;;;;;-5.83;60.13;101525.97;5072152;28;20507;-75
2022/12/17 23:51:23;;;;;;;9.00;6.00;;;;;;;-5.86;59.92;101518.19;5072656;28;20063;-75
2022/12/17 23:53:50;;;;;;;9.13;5.07;;;;;;;-5.84;59.55;101521.56;5071849;28;20048;-75
2022/12/17 23:56:24;;;;;;;8.35;5.15;;;;;;;-5.84;59.83;101518.00;5072518;28;20079;-74
2022/12/17 23:58:53;;;;;;;8.70;5.72;;;;;;;-5.87;60.02;101521.94;5071978;28;20056;-75
